createdAt,value
2019-04-23T00:02:00.917Z,16.50
2019-04-23T00:04:30.145Z,16.40
2019-04-23T00:07:22.629Z,16.20
2019-04-23T00:09:38.944Z,16.10
2019-04-23T00:12:23.674Z,16.10
2019-04-23T00:14:55.214Z,16.20
2019-04-23T00:17:24.866Z,16.10
2019-04-23T00:19:55.707Z,15.70
2019-04-23T00:22:47.495Z,15.80
2019-04-23T00:25:43.638Z,15.80
2019-04-23T00:27:59.456Z,15.50
2019-04-23T00:33:05.253Z,15.50
2019-04-23T00:35:41.727Z,15.60
2019-04-23T00:40:47.276Z,15.30
2019-04-23T00:45:50.276Z,15.50
2019-04-23T00:48:28.047Z,15.40
2019-04-23T00:53:29.656Z,15.30
2019-04-23T00:56:26.921Z,15.00
2019-04-23T00:58:46.454Z,15.10
2019-04-23T01:01:11.332Z,15.20
2019-04-23T01:03:42.190Z,15.20
2019-04-23T01:06:21.162Z,15.20
2019-04-23T01:08:52.224Z,15.40
2019-04-23T01:11:20.772Z,15.10
2019-04-23T01:14:08.301Z,15.10
2019-04-23T01:16:23.251Z,15.10
2019-04-23T01:19:21.269Z,15.20
2019-04-23T01:21:19.808Z,15.20
2019-04-23T01:24:10.216Z,15.20
2019-04-23T01:27:35.858Z,15.00
2019-04-23T01:29:54.522Z,15.10
2019-04-23T01:32:27.044Z,15.20
2019-04-23T01:35:09.165Z,15.30
2019-04-23T01:37:34.542Z,15.30
2019-04-23T01:40:07.805Z,15.30
2019-04-23T01:45:20.238Z,15.30
2019-04-23T01:47:50.494Z,15.20
2019-04-23T01:53:03.963Z,15.20
2019-04-23T01:58:21.938Z,14.80
2019-04-23T02:03:20.853Z,14.30
2019-04-23T02:05:48.332Z,14.90
2019-04-23T02:08:20.761Z,15.00
2019-04-23T02:11:00.564Z,15.00
2019-04-23T02:13:33.976Z,15.00
2019-04-23T02:16:00.074Z,15.00
2019-04-23T02:18:31.869Z,15.10
2019-04-23T02:21:15.466Z,15.10
2019-04-23T02:24:01.018Z,15.30
2019-04-23T02:26:33.341Z,15.00
2019-04-23T02:31:58.316Z,15.10
2019-04-23T02:34:31.215Z,15.00
2019-04-23T02:36:57.131Z,15.00
2019-04-23T02:39:28.592Z,14.80
2019-04-23T02:44:36.926Z,14.20
2019-04-23T02:47:17.151Z,14.00
2019-04-23T02:55:10.838Z,14.10
2019-04-23T02:57:29.784Z,14.20
2019-04-23T03:02:45.099Z,14.20
2019-04-23T03:05:13.239Z,14.40
2019-04-23T03:07:52.870Z,14.60
2019-04-23T03:10:18.305Z,14.70
2019-04-23T03:12:59.273Z,14.80
2019-04-23T03:15:43.696Z,14.80
2019-04-23T03:18:20.572Z,14.70
2019-04-23T03:21:12.492Z,14.60
2019-04-23T03:23:53.624Z,14.20
2019-04-23T03:29:04.331Z,13.90
2019-04-23T03:32:45.847Z,13.90
2019-04-23T03:36:39.824Z,13.60
2019-04-23T03:38:55.995Z,13.70
2019-04-23T03:41:47.983Z,13.80
2019-04-23T03:44:12.289Z,14.00
2019-04-23T03:47:07.060Z,14.10
2019-04-23T03:49:13.711Z,14.10
2019-04-23T03:51:56.788Z,14.20
2019-04-23T03:57:13.379Z,14.30
2019-04-23T03:59:52.182Z,14.30
2019-04-23T04:04:45.179Z,14.20
2019-04-23T04:09:52.115Z,14.10
2019-04-23T04:15:10.529Z,13.70
2019-04-23T04:18:01.854Z,13.80
2019-04-23T04:22:46.513Z,13.90
2019-04-23T04:30:27.247Z,13.80
2019-04-23T04:33:19.709Z,13.80
2019-04-23T04:38:34.895Z,13.70
2019-04-23T04:40:38.044Z,13.70
2019-04-23T04:43:23.029Z,13.90
2019-04-23T04:45:49.761Z,13.90
2019-04-23T04:48:23.180Z,13.30
2019-04-23T04:51:06.157Z,13.30
2019-04-23T04:56:05.015Z,13.50
2019-04-23T04:58:32.414Z,13.40
2019-04-23T05:03:29.575Z,13.70
2019-04-23T05:08:54.638Z,13.90
2019-04-23T05:11:28.346Z,14.10
2019-04-23T05:14:05.879Z,14.20
2019-04-23T05:16:27.646Z,14.20
2019-04-23T05:19:19.892Z,14.40
2019-04-23T05:24:23.218Z,13.90
2019-04-23T05:26:46.552Z,13.90
2019-04-23T05:31:48.323Z,14.40
2019-04-23T05:34:27.341Z,14.70
2019-04-23T05:37:00.280Z,15.00
2019-04-23T05:42:14.252Z,14.90
2019-04-23T05:44:53.969Z,15.20
2019-04-23T05:50:02.155Z,15.50
2019-04-23T05:52:31.285Z,15.80
2019-04-23T05:55:10.643Z,15.70
2019-04-23T05:57:39.138Z,16.00
2019-04-23T06:00:16.138Z,16.00
2019-04-23T06:03:04.933Z,16.10
2019-04-23T06:05:37.088Z,15.80
2019-04-23T06:08:07.876Z,15.90
2019-04-23T06:10:44.290Z,16.10
2019-04-23T06:13:16.755Z,15.90
2019-04-23T06:15:41.682Z,16.20
2019-04-23T06:18:17.186Z,16.20
2019-04-23T06:23:30.382Z,15.90
2019-04-23T06:26:10.083Z,16.00
2019-04-23T06:28:28.752Z,15.40
2019-04-23T06:31:03.047Z,16.60
2019-04-23T06:33:32.684Z,16.00
2019-04-23T06:36:12.375Z,16.20
2019-04-23T06:41:08.651Z,16.40
2019-04-23T06:44:18.071Z,16.60
2019-04-23T06:46:54.929Z,16.80
2019-04-23T06:49:17.074Z,17.00
2019-04-23T06:52:07.063Z,17.10
2019-04-23T06:54:24.414Z,17.20
2019-04-23T06:57:10.634Z,17.40
2019-04-23T06:59:30.631Z,17.70
2019-04-23T07:02:06.403Z,15.90
2019-04-23T07:04:34.573Z,16.10
2019-04-23T07:09:35.349Z,17.20
2019-04-23T07:12:20.169Z,16.80
2019-04-23T07:17:18.149Z,16.70
2019-04-23T07:20:04.263Z,17.30
2019-04-23T07:22:28.408Z,17.70
2019-04-23T07:25:08.148Z,17.90
2019-04-23T07:27:37.767Z,18.10
2019-04-23T07:30:33.466Z,17.80
2019-04-23T07:32:52.888Z,16.60
2019-04-23T07:35:25.718Z,16.90
2019-04-23T07:38:11.074Z,16.60
2019-04-23T07:40:51.336Z,16.90
2019-04-23T07:43:41.143Z,17.10
2019-04-23T07:46:46.230Z,17.50
2019-04-23T07:49:11.499Z,18.00
2019-04-23T07:52:01.179Z,18.40
2019-04-23T07:57:15.255Z,21.40
2019-04-23T07:59:48.637Z,18.40
2019-04-23T08:02:22.051Z,17.90
2019-04-23T08:05:11.675Z,17.20
2019-04-23T08:07:35.694Z,16.80
2019-04-23T08:10:11.626Z,16.90
2019-04-23T08:12:50.738Z,16.80
2019-04-23T08:15:34.914Z,16.10
2019-04-23T08:17:58.660Z,16.40
2019-04-23T08:20:42.614Z,17.20
2019-04-23T08:23:38.585Z,17.80
2019-04-23T08:26:34.745Z,18.00
2019-04-23T08:29:10.133Z,16.70
2019-04-23T08:31:43.942Z,17.50
2019-04-23T08:39:20.791Z,16.20
2019-04-23T08:42:30.336Z,16.40
2019-04-23T08:44:56.938Z,16.80
2019-04-23T08:47:29.940Z,16.50
2019-04-23T08:49:59.352Z,16.20
2019-04-23T08:52:33.471Z,16.60
2019-04-23T08:55:13.890Z,16.90
2019-04-23T08:57:43.125Z,16.40
2019-04-23T09:00:55.232Z,16.70
2019-04-23T09:03:06.228Z,17.20
2019-04-23T09:08:38.920Z,17.40
2019-04-23T09:11:37.012Z,17.30
2019-04-23T09:19:11.248Z,17.00
2019-04-23T09:21:33.014Z,17.40
2019-04-23T09:24:09.556Z,17.20
2019-04-23T09:26:40.213Z,15.20
2019-04-23T09:29:28.050Z,17.10
2019-04-23T09:34:52.587Z,16.70
2019-04-23T09:37:26.856Z,17.30
2019-04-23T09:40:09.054Z,17.60
2019-04-23T09:42:46.385Z,17.10
2019-04-23T09:45:35.894Z,15.60
2019-04-23T09:48:06.671Z,16.40
2019-04-23T09:50:52.391Z,16.40
2019-04-23T09:53:24.970Z,17.00
2019-04-23T09:55:48.709Z,17.60
2019-04-23T09:58:28.818Z,18.10
2019-04-23T10:01:29.061Z,18.60
2019-04-23T10:03:50.531Z,18.10
2019-04-23T10:06:22.650Z,17.50
2019-04-23T10:08:57.830Z,17.90
2019-04-23T10:11:28.355Z,17.90
2019-04-23T10:14:03.376Z,18.20
2019-04-23T10:16:41.151Z,18.20
2019-04-23T10:19:12.574Z,18.60
2019-04-23T10:21:43.816Z,18.80
2019-04-23T10:24:13.059Z,19.30
2019-04-23T10:26:53.437Z,19.60
2019-04-23T10:29:27.711Z,19.90
2019-04-23T10:31:59.680Z,20.40
2019-04-23T10:34:47.919Z,20.50
2019-04-23T10:37:13.495Z,20.80
2019-04-23T10:39:46.872Z,20.80
2019-04-23T10:42:14.220Z,20.70
2019-04-23T10:45:26.930Z,22.10
2019-04-23T10:48:32.661Z,21.30
2019-04-23T10:51:01.807Z,21.30
2019-04-23T10:53:34.942Z,21.60
2019-04-23T10:56:01.055Z,21.70
2019-04-23T11:01:27.927Z,21.60
2019-04-23T11:04:21.390Z,21.10
2019-04-23T11:07:25.253Z,21.10
2019-04-23T11:09:49.643Z,18.50
2019-04-23T11:12:37.024Z,18.60
2019-04-23T11:15:27.460Z,19.10
2019-04-23T11:22:57.281Z,19.30
2019-04-23T11:28:28.836Z,19.60
2019-04-23T11:30:54.935Z,19.00
2019-04-23T11:33:30.014Z,19.50
2019-04-23T11:38:49.032Z,20.20
2019-04-23T11:41:19.014Z,18.90
2019-04-23T11:43:39.549Z,18.90
2019-04-23T11:46:32.571Z,19.40
2019-04-23T11:49:04.722Z,20.10
2019-04-23T11:53:55.798Z,20.20
2019-04-23T11:59:12.358Z,19.20
2019-04-23T12:04:21.454Z,19.60
2019-04-23T12:07:00.211Z,19.20
2019-04-23T12:09:40.128Z,18.20
2019-04-23T12:12:13.238Z,18.10
2019-04-23T12:14:56.255Z,18.40
2019-04-23T12:20:12.298Z,19.80
2019-04-23T12:22:38.880Z,20.00
2019-04-23T12:27:44.160Z,20.10
2019-04-23T12:33:20.358Z,19.20
2019-04-23T12:35:39.295Z,19.10
2019-04-23T12:38:22.057Z,19.00
2019-04-23T12:40:51.120Z,19.50
2019-04-23T12:43:29.074Z,20.50
2019-04-23T12:45:57.851Z,21.00
2019-04-23T12:51:19.391Z,19.50
2019-04-23T12:53:45.549Z,19.40
2019-04-23T12:56:31.784Z,19.90
2019-04-23T12:59:09.458Z,20.10
2019-04-23T13:01:48.907Z,19.50
2019-04-23T13:04:26.181Z,19.50
2019-04-23T13:06:57.537Z,19.90
2019-04-23T13:09:49.557Z,20.50
2019-04-23T13:12:24.000Z,20.00
2019-04-23T13:17:25.327Z,19.80
2019-04-23T13:20:00.184Z,20.20
2019-04-23T13:22:23.406Z,20.30
2019-04-23T13:24:54.096Z,19.90
2019-04-23T13:30:31.590Z,21.20
2019-04-23T13:33:11.404Z,21.60
2019-04-23T13:38:25.055Z,21.20
2019-04-23T13:40:57.733Z,20.60
2019-04-23T13:48:27.634Z,20.30
2019-04-23T13:56:30.263Z,22.20
2019-04-23T13:58:51.113Z,22.40
2019-04-23T14:06:35.021Z,22.20
2019-04-23T14:09:01.968Z,22.30
2019-04-23T14:11:32.408Z,22.70
2019-04-23T14:14:25.412Z,23.00
2019-04-23T14:17:20.790Z,23.10
2019-04-23T14:19:16.580Z,22.30
2019-04-23T14:21:51.825Z,22.20
2019-04-23T14:24:32.386Z,22.70
2019-04-23T14:26:58.340Z,23.10
2019-04-23T14:29:43.633Z,23.10
2019-04-23T14:32:08.844Z,23.20
2019-04-23T14:34:43.933Z,22.90
2019-04-23T14:37:17.629Z,22.20
2019-04-23T14:39:47.798Z,21.30
2019-04-23T14:45:08.174Z,21.80
2019-04-23T14:50:28.835Z,21.00
2019-04-23T14:52:38.657Z,21.40
2019-04-23T14:57:55.542Z,22.40
2019-04-23T15:00:21.042Z,22.20
2019-04-23T15:02:54.618Z,22.30
2019-04-23T15:05:25.805Z,22.70
2019-04-23T15:07:51.238Z,22.40
2019-04-23T15:10:24.596Z,22.40
2019-04-23T15:15:25.190Z,22.70
2019-04-23T15:18:01.814Z,23.00
2019-04-23T15:20:30.663Z,21.90
2019-04-23T15:26:14.586Z,23.20
2019-04-23T15:30:51.447Z,23.40
2019-04-23T15:33:31.671Z,23.70
2019-04-23T15:36:18.456Z,23.50
2019-04-23T15:41:10.692Z,23.50
2019-04-23T15:43:46.809Z,23.50
2019-04-23T15:46:20.312Z,23.50
2019-04-23T15:48:57.923Z,23.60
2019-04-23T15:51:28.296Z,23.10
2019-04-23T15:53:56.815Z,23.00
2019-04-23T15:56:35.527Z,23.20
2019-04-23T15:59:25.810Z,22.00
2019-04-23T16:01:41.385Z,23.30
2019-04-23T16:03:57.609Z,23.40
2019-04-23T16:06:33.148Z,23.10
2019-04-23T16:09:21.565Z,23.10
2019-04-23T16:11:59.010Z,23.00
2019-04-23T16:14:52.612Z,23.00
2019-04-23T16:17:20.903Z,23.10
2019-04-23T16:20:06.578Z,23.20
2019-04-23T16:22:25.049Z,23.30
2019-04-23T16:25:06.692Z,23.20
2019-04-23T16:27:25.772Z,23.40
2019-04-23T16:33:02.478Z,23.40
2019-04-23T16:38:32.229Z,23.30
2019-04-23T16:43:27.521Z,23.10
2019-04-23T16:46:07.541Z,23.20
2019-04-23T16:48:47.848Z,23.30
2019-04-23T16:51:27.708Z,23.20
2019-04-23T16:53:52.761Z,23.20
2019-04-23T16:56:55.923Z,23.10
2019-04-23T16:59:15.483Z,23.20
2019-04-23T17:01:46.995Z,20.80
2019-04-23T17:04:17.716Z,23.10
2019-04-23T17:07:38.412Z,23.00
2019-04-23T17:10:12.958Z,22.60
2019-04-23T17:12:47.432Z,23.00
2019-04-23T17:17:56.035Z,23.00
2019-04-23T17:20:40.818Z,23.00
2019-04-23T17:23:07.418Z,23.00
2019-04-23T17:25:32.483Z,23.00
2019-04-23T17:30:53.813Z,22.90
2019-04-23T17:33:31.966Z,22.90
2019-04-23T17:42:24.400Z,22.30
2019-04-23T17:45:17.087Z,22.30
2019-04-23T17:50:37.943Z,21.50
2019-04-23T17:53:15.190Z,22.30
2019-04-23T17:55:57.646Z,22.10
2019-04-23T17:58:36.490Z,22.10
2019-04-23T18:01:10.963Z,22.90
2019-04-23T18:03:49.233Z,22.10
2019-04-23T18:09:00.890Z,22.10
2019-04-23T18:11:48.229Z,22.10
2019-04-23T18:14:30.925Z,21.90
2019-04-23T18:17:14.621Z,21.60
2019-04-23T18:22:41.930Z,21.80
2019-04-23T18:28:13.551Z,21.70
2019-04-23T18:34:03.051Z,21.40
2019-04-23T18:36:18.339Z,21.40
2019-04-23T18:44:54.016Z,21.40
2019-04-23T18:54:15.372Z,21.00
2019-04-23T18:56:53.416Z,21.10
2019-04-23T19:07:08.028Z,21.20
2019-04-23T19:13:31.223Z,21.20
2019-04-23T19:15:54.315Z,21.10
2019-04-23T19:21:48.929Z,21.10
2019-04-23T19:23:55.007Z,21.00
2019-04-23T19:29:21.298Z,21.00
2019-04-23T19:32:06.657Z,20.90
2019-04-23T19:34:52.946Z,20.90
2019-04-23T19:40:28.357Z,20.90
2019-04-23T19:43:00.888Z,20.70
2019-04-23T19:46:05.658Z,20.80
2019-04-23T19:54:09.729Z,20.80
2019-04-23T19:59:14.099Z,20.70
2019-04-23T20:02:02.101Z,20.60
2019-04-23T20:05:00.844Z,20.70
2019-04-23T20:13:35.919Z,20.70
2019-04-23T20:41:54.776Z,20.50
2019-04-23T20:47:11.660Z,20.50
2019-04-23T20:52:35.456Z,21.50
2019-04-23T20:55:05.174Z,20.30
2019-04-23T21:01:07.185Z,20.40
2019-04-23T21:07:05.434Z,20.40
2019-04-23T21:09:11.337Z,20.40
2019-04-23T21:11:32.652Z,20.50
2019-04-23T21:16:36.044Z,20.40
2019-04-23T21:19:10.109Z,20.30
2019-04-23T21:24:56.619Z,20.20
2019-04-23T21:30:34.436Z,20.20
2019-04-23T21:35:49.361Z,20.20
2019-04-23T21:38:41.820Z,20.10
2019-04-23T21:44:40.526Z,20.20
2019-04-23T21:47:48.031Z,20.10
2019-04-23T21:50:25.327Z,20.00
2019-04-23T21:52:54.097Z,20.10
2019-04-23T21:55:39.149Z,20.10
2019-04-23T21:58:44.128Z,20.10
2019-04-23T22:01:09.455Z,20.10
2019-04-23T22:06:33.118Z,20.00
2019-04-23T22:08:59.384Z,20.00
2019-04-23T22:16:43.917Z,19.80
2019-04-23T22:19:21.399Z,19.80
2019-04-23T22:21:54.468Z,19.70
2019-04-23T22:24:28.806Z,19.80
2019-04-23T22:26:54.546Z,19.70
2019-04-23T22:32:40.788Z,19.50
2019-04-23T22:38:07.023Z,19.40
2019-04-23T22:40:34.568Z,19.30
2019-04-23T22:45:54.500Z,19.40
2019-04-23T22:48:18.323Z,19.30
2019-04-23T22:51:04.893Z,19.30
2019-04-23T22:53:31.470Z,19.20
2019-04-23T22:56:01.651Z,19.20
2019-04-23T22:58:46.053Z,19.10
2019-04-23T23:04:20.306Z,19.10
2019-04-23T23:07:01.183Z,19.20
2019-04-23T23:09:43.599Z,19.20
2019-04-23T23:12:31.758Z,19.30
2019-04-23T23:14:47.516Z,19.30
2019-04-23T23:17:24.301Z,19.30
2019-04-23T23:20:23.296Z,19.20
2019-04-23T23:22:41.418Z,19.20
2019-04-23T23:25:24.716Z,19.10
2019-04-23T23:28:07.966Z,19.10
2019-04-23T23:30:38.184Z,19.30
2019-04-23T23:33:11.536Z,19.10
2019-04-23T23:43:59.641Z,21.10
2019-04-23T23:49:03.279Z,18.60
2019-04-23T23:52:19.524Z,18.60
2019-04-23T23:55:01.066Z,18.40
2019-04-23T23:57:24.733Z,18.20
